Time;durP1;ratioP1;P1;durP2;ratioP2;P2;SDS_P1;SDS_P2;PMS_P1;PMS_P2;Temp;Humidity;BMP_temperature;BMP_pressure;BME280_temperature;BME280_humidity;BME280_pressure;Samples;Min_cycle;Max_cycle;Signal;HPM_P1;HPM_P2
2021/08/13 00:01:14;;;;;;;10.85;7.37;;;;;;;13.18;69.09;100801.51;2226365;78;21084;-77
2021/08/13 00:04:15;;;;;;;10.18;7.47;;;;;;;13.13;68.98;100805.67;2222093;78;21033;-81
2021/08/13 00:07:16;;;;;;;11.30;8.08;;;;;;;13.13;69.01;100815.00;2227455;78;21436;-81
2021/08/13 00:10:18;;;;;;;10.85;7.47;;;;;;;13.08;69.14;100813.33;2224495;78;21022;-80
2021/08/13 00:13:20;;;;;;;11.57;7.12;;;;;;;13.04;69.07;100817.33;2223191;78;21091;-80
2021/08/13 00:16:21;;;;;;;10.28;7.67;;;;;;;12.97;69.06;100812.64;2224966;78;21556;-81
2021/08/13 00:19:22;;;;;;;13.90;8.58;;;;;;;12.94;69.24;100809.48;2224982;78;20994;-81
2021/08/13 00:22:23;;;;;;;14.60;8.85;;;;;;;12.89;69.67;100811.30;2222280;78;22153;-80
2021/08/13 00:25:25;;;;;;;14.07;8.43;;;;;;;12.89;69.83;100813.97;2223803;78;21547;-79
2021/08/13 00:28:26;;;;;;;10.23;7.90;;;;;;;12.86;69.71;100812.97;2228085;78;21007;-79
2021/08/13 00:31:28;;;;;;;9.68;6.42;;;;;;;12.83;69.83;100810.63;2223558;78;21058;-81
2021/08/13 00:34:30;;;;;;;10.78;7.62;;;;;;;12.75;69.56;100808.81;2220654;78;21559;-80
2021/08/13 00:37:32;;;;;;;14.15;8.25;;;;;;;12.69;69.58;100814.77;2225324;78;21681;-80
2021/08/13 00:40:33;;;;;;;9.93;8.13;;;;;;;12.70;70.03;100808.97;2224952;78;21614;-79
2021/08/13 00:43:35;;;;;;;10.38;8.58;;;;;;;12.68;70.01;100800.30;2218981;78;21085;-81
2021/08/13 00:46:37;;;;;;;9.88;7.37;;;;;;;12.60;70.26;100797.13;2223986;78;21076;-79
2021/08/13 00:49:46;;;;;;;9.40;7.95;;;;;;;12.52;70.03;100801.09;2219465;78;21108;-80
2021/08/13 00:52:50;;;;;;;10.43;7.67;;;;;;;12.47;70.30;100799.41;2228189;78;21131;-80
2021/08/13 00:55:53;;;;;;;15.10;8.65;;;;;;;12.45;70.02;100795.59;2231034;78;21084;-79
2021/08/13 00:58:56;;;;;;;14.80;8.78;;;;;;;12.41;70.90;100791.58;2219216;78;20997;-77
2021/08/13 01:02:05;;;;;;;8.50;7.12;;;;;;;12.32;70.99;100791.23;2230601;78;21046;-80
2021/08/13 01:05:09;;;;;;;11.48;7.65;;;;;;;12.26;71.02;100790.55;2231380;78;20963;-79
2021/08/13 01:08:10;;;;;;;10.23;7.17;;;;;;;12.24;71.12;100788.53;2236643;78;21580;-79
2021/08/13 01:11:53;;;;;;;8.55;6.83;;;;;;;12.23;70.90;100784.22;2234173;78;21117;-78
2021/08/13 01:15:11;;;;;;;11.93;7.78;;;;;;;12.24;71.16;100791.20;2230640;78;20982;-77
2021/08/13 01:18:32;;;;;;;7.92;6.50;;;;;;;12.25;70.97;100783.57;2236558;78;21658;-80
2021/08/13 01:22:03;;;;;;;10.98;6.83;;;;;;;12.15;70.85;100773.55;2231198;78;21060;-79
2021/08/13 01:25:06;;;;;;;9.97;7.37;;;;;;;12.23;70.84;100791.70;2230663;78;21372;-79
2021/08/13 01:28:55;;;;;;;9.85;7.85;;;;;;;12.20;70.73;100789.36;2231721;78;21081;-80
2021/08/13 01:32:13;;;;;;;13.60;7.90;;;;;;;12.18;70.95;100795.33;2228760;78;21656;-78
2021/08/13 01:35:30;;;;;;;8.03;6.85;;;;;;;12.13;71.37;100782.18;2228145;78;21053;-77
2021/08/13 01:38:36;;;;;;;12.73;8.13;;;;;;;12.13;71.37;100782.18;2233446;78;21584;-78
2021/08/13 01:41:40;;;;;;;12.70;8.53;;;;;;;11.93;71.81;100759.82;2230938;78;21543;-79
2021/08/13 01:44:44;;;;;;;17.05;9.10;;;;;;;12.01;71.78;100781.13;2231136;78;21000;-78
2021/08/13 01:47:46;;;;;;;12.78;8.45;;;;;;;11.85;71.84;100766.40;2230620;78;21612;-79
2021/08/13 01:50:49;;;;;;;10.23;7.83;;;;;;;11.85;71.84;100766.40;2232902;78;21077;-80
2021/08/13 01:53:52;;;;;;;16.82;8.70;;;;;;;11.95;71.91;100776.46;2233319;78;21033;-78
2021/08/13 01:56:56;;;;;;;12.30;8.10;;;;;;;11.92;72.00;100773.30;2233687;78;21018;-77
2021/08/13 01:59:59;;;;;;;12.43;8.63;;;;;;;11.87;71.83;100775.92;2236739;78;21540;-80
2021/08/13 02:03:03;;;;;;;13.20;8.65;;;;;;;11.83;72.04;100778.55;2233850;78;21042;-79
2021/08/13 02:06:06;;;;;;;15.28;9.78;;;;;;;11.81;72.37;100773.05;2229166;78;21049;-78
2021/08/13 02:09:08;;;;;;;11.88;7.85;;;;;;;11.85;72.66;100774.38;2198635;78;21018;-78
2021/08/13 02:12:11;;;;;;;11.08;8.55;;;;;;;11.94;72.48;100771.28;2229687;78;21085;-79
2021/08/13 02:15:13;;;;;;;14.87;9.43;;;;;;;11.94;72.48;100771.28;2234376;78;21798;-79
2021/08/13 02:18:25;;;;;;;16.87;9.20;;;;;;;12.01;73.10;100773.16;2233714;78;21575;-77
2021/08/13 02:21:29;;;;;;;14.73;8.15;;;;;;;12.06;73.00;100772.19;2233454;78;21096;-81
2021/08/13 02:24:30;;;;;;;14.93;7.87;;;;;;;12.13;72.68;100776.86;2225595;78;21377;-78
2021/08/13 02:27:34;;;;;;;11.05;7.87;;;;;;;12.01;72.28;100753.20;2226894;78;21002;-80
2021/08/13 02:30:35;;;;;;;9.90;7.87;;;;;;;12.05;72.21;100771.86;2231797;78;21030;-80
2021/08/13 02:33:37;;;;;;;12.30;7.55;;;;;;;12.05;72.33;100769.20;2232507;78;21109;-81
2021/08/13 02:37:03;;;;;;;9.80;7.92;;;;;;;12.05;72.33;100769.20;2234895;78;21073;-81
2021/08/13 02:40:10;;;;;;;16.77;9.78;;;;;;;11.92;72.11;100740.05;2236088;78;21041;-79
2021/08/13 02:43:24;;;;;;;15.60;10.40;;;;;;;12.04;72.61;100765.36;2235702;78;21476;-80
2021/08/13 02:46:38;;;;;;;9.75;7.72;;;;;;;12.01;72.51;100767.01;2231987;78;21119;-80
2021/08/13 02:49:49;;;;;;;9.90;7.60;;;;;;;11.88;72.43;100743.51;2208650;78;21523;-80
2021/08/13 02:53:09;;;;;;;16.95;9.90;;;;;;;11.88;72.43;100743.51;2213164;78;21590;-78
2021/08/13 02:56:16;;;;;;;11.97;9.27;;;;;;;11.86;72.80;100737.54;2210120;79;21019;-79
2021/08/13 02:59:20;;;;;;;13.45;8.98;;;;;;;12.04;72.76;100766.19;2220259;78;21300;-79
2021/08/13 03:02:22;;;;;;;14.45;9.45;;;;;;;12.07;72.68;100764.53;2230813;78;21030;-80
2021/08/13 03:05:25;;;;;;;10.50;7.87;;;;;;;12.08;72.58;100754.75;2186632;79;21033;-78
2021/08/13 03:08:26;;;;;;;12.68;8.60;;;;;;;11.98;72.81;100754.86;2218568;79;21039;-79
2021/08/13 03:11:31;;;;;;;10.48;7.85;;;;;;;11.98;72.81;100754.86;2214885;79;21002;-79
2021/08/13 03:14:33;;;;;;;15.20;11.53;;;;;;;11.98;72.66;100753.53;2214292;78;21583;-79
2021/08/13 03:17:35;;;;;;;9.88;8.23;;;;;;;12.00;73.30;100755.55;2215006;78;21003;-80
2021/08/13 03:20:38;;;;;;;12.58;8.30;;;;;;;12.04;73.18;100760.86;2215662;79;21045;-80
2021/08/13 03:23:42;;;;;;;12.98;9.60;;;;;;;12.10;73.15;100763.38;2217835;78;21129;-77
2021/08/13 03:26:44;;;;;;;10.63;7.95;;;;;;;12.06;73.02;100732.28;2229060;78;21034;-78
2021/08/13 03:29:47;;;;;;;13.53;9.60;;;;;;;12.06;73.02;100732.28;2234740;79;21088;-78
2021/08/13 03:32:50;;;;;;;22.58;8.15;;;;;;;12.24;73.38;100755.28;2231316;78;21093;-80
2021/08/13 03:35:52;;;;;;;13.95;8.00;;;;;;;12.29;73.38;100758.30;2256393;77;21383;-79
2021/08/13 03:38:53;;;;;;;11.48;9.40;;;;;;;12.30;73.29;100757.28;2189968;79;20992;-77
2021/08/13 03:41:55;;;;;;;14.05;8.43;;;;;;;12.36;73.67;100754.00;2233368;78;21056;-78
2021/08/13 03:44:58;;;;;;;12.37;8.80;;;;;;;12.42;73.68;100757.34;2229701;78;21100;-78
2021/08/13 03:47:59;;;;;;;10.85;8.10;;;;;;;12.36;73.70;100739.36;2226946;78;21033;-78
2021/08/13 03:51:00;;;;;;;11.83;8.73;;;;;;;12.51;73.71;100747.53;2229920;78;21002;-77
2021/08/13 03:54:02;;;;;;;11.50;9.33;;;;;;;12.54;73.63;100740.55;2230098;78;21491;-80
2021/08/13 03:57:04;;;;;;;11.35;9.48;;;;;;;12.40;73.56;100714.58;2228856;78;21104;-80
2021/08/13 04:00:10;;;;;;;9.70;8.60;;;;;;;12.40;73.56;100714.58;2233425;78;21057;-79
2021/08/13 04:03:22;;;;;;;11.57;8.50;;;;;;;12.55;73.84;100737.70;2228696;78;21041;-81
2021/08/13 04:06:24;;;;;;;12.40;8.40;;;;;;;12.62;73.73;100734.41;2227871;78;21671;-80
2021/08/13 04:09:26;;;;;;;9.73;7.58;;;;;;;12.72;73.81;100738.55;2232986;78;20994;-78
2021/08/13 04:12:28;;;;;;;13.43;7.80;;;;;;;12.84;73.88;100721.77;2232419;78;21061;-78
2021/08/13 04:15:34;;;;;;;13.40;8.28;;;;;;;13.13;73.66;100731.90;2223371;78;21073;-80
2021/08/13 04:18:35;;;;;;;10.05;8.15;;;;;;;13.30;73.63;100734.06;2231006;78;21024;-80
2021/08/13 04:21:38;;;;;;;11.00;7.70;;;;;;;13.38;73.49;100743.38;2201669;78;20998;-80
2021/08/13 04:24:39;;;;;;;13.53;9.55;;;;;;;13.43;73.53;100747.70;2230089;78;21123;-79
2021/08/13 04:27:40;;;;;;;13.35;8.75;;;;;;;13.49;73.50;100748.86;2232823;78;21563;-78
2021/08/13 04:30:42;;;;;;;15.58;9.65;;;;;;;13.52;73.49;100755.19;2227211;78;21024;-77
2021/08/13 04:33:45;;;;;;;13.88;9.53;;;;;;;13.56;73.48;100753.00;2231545;78;20990;-79
2021/08/13 04:36:50;;;;;;;13.03;9.58;;;;;;;13.73;73.47;100756.45;2233612;78;21085;-77
2021/08/13 04:39:52;;;;;;;14.23;9.33;;;;;;;13.79;73.33;100755.77;2228674;78;21065;-78
2021/08/13 04:42:53;;;;;;;12.70;9.33;;;;;;;14.01;73.65;100747.51;2233534;78;20965;-78
2021/08/13 04:45:55;;;;;;;14.80;9.58;;;;;;;14.49;73.58;100746.91;2231546;78;21002;-80
2021/08/13 04:48:56;;;;;;;12.45;9.00;;;;;;;14.98;73.09;100753.27;2230162;78;21033;-79
2021/08/13 04:51:59;;;;;;;19.90;10.45;;;;;;;15.40;72.55;100750.52;2231725;78;21064;-80
2021/08/13 04:55:02;;;;;;;11.38;9.33;;;;;;;15.61;72.14;100749.29;2221143;78;22291;-79
2021/08/13 04:58:04;;;;;;;14.13;9.30;;;;;;;15.73;71.63;100752.36;2221411;78;21037;-81
2021/08/13 05:01:05;;;;;;;16.90;9.13;;;;;;;15.76;71.35;100750.65;2217542;78;21026;-79
2021/08/13 05:04:07;;;;;;;14.85;9.20;;;;;;;15.89;71.56;100755.36;2222848;78;21049;-80
2021/08/13 05:07:08;;;;;;;18.15;9.33;;;;;;;16.19;71.38;100760.17;2218183;78;20982;-80
2021/08/13 05:10:16;;;;;;;10.93;9.40;;;;;;;16.53;70.92;100760.86;2220590;78;21017;-81
2021/08/13 05:13:17;;;;;;;13.13;9.30;;;;;;;16.72;70.57;100765.25;2228649;78;21634;-80
2021/08/13 05:16:18;;;;;;;14.33;9.60;;;;;;;16.79;70.15;100774.23;2226619;78;21716;-80
2021/08/13 05:19:20;;;;;;;13.55;9.33;;;;;;;17.19;70.30;100774.58;2223683;78;21069;-80
2021/08/13 05:22:23;;;;;;;14.43;9.23;;;;;;;17.78;69.87;100780.89;2217376;78;21029;-79
2021/08/13 05:25:25;;;;;;;12.07;9.33;;;;;;;18.40;69.11;100780.44;2220169;78;21001;-80
2021/08/13 05:28:27;;;;;;;14.00;9.05;;;;;;;19.01;68.66;100779.04;2221143;78;21397;-79
2021/08/13 05:31:28;;;;;;;12.82;8.90;;;;;;;19.46;67.76;100779.75;2224422;78;21480;-78
2021/08/13 05:34:30;;;;;;;14.28;9.53;;;;;;;19.99;67.08;100772.92;2226732;78;21094;-81
2021/08/13 05:37:31;;;;;;;12.58;9.33;;;;;;;20.06;65.86;100765.63;2220826;78;21121;-80
2021/08/13 05:40:33;;;;;;;10.58;8.95;;;;;;;20.14;65.41;100765.39;2215443;78;21076;-79
2021/08/13 05:43:36;;;;;;;12.07;8.75;;;;;;;20.17;64.97;100764.14;2198476;78;21013;-76
2021/08/13 05:46:37;;;;;;;12.68;9.90;;;;;;;20.49;64.88;100763.65;2223732;78;21488;-75
2021/08/13 05:49:38;;;;;;;13.35;9.53;;;;;;;20.80;63.24;100764.73;2219545;78;21457;-76
2021/08/13 05:52:39;;;;;;;14.28;9.78;;;;;;;20.85;62.72;100763.56;2223501;78;21555;-75
2021/08/13 05:55:41;;;;;;;11.53;9.55;;;;;;;20.57;61.95;100763.42;2197252;78;21080;-75
2021/08/13 05:58:42;;;;;;;14.13;10.25;;;;;;;20.27;62.07;100765.02;2234320;78;21094;-76
2021/08/13 06:01:45;;;;;;;14.65;10.55;;;;;;;19.85;61.04;100760.52;2230405;78;20989;-77
2021/08/13 06:04:46;;;;;;;15.95;10.30;;;;;;;19.44;61.56;100771.05;2229246;78;21611;-75
2021/08/13 06:07:48;;;;;;;17.35;9.60;;;;;;;19.30;62.49;100769.41;2233574;78;21112;-75
2021/08/13 06:10:51;;;;;;;20.62;10.63;;;;;;;19.32;62.90;100766.83;2230224;78;21045;-79
2021/08/13 06:13:52;;;;;;;17.42;10.10;;;;;;;19.37;62.67;100764.34;2228406;78;21037;-77
2021/08/13 06:16:54;;;;;;;13.65;10.05;;;;;;;19.15;62.35;100767.77;2227541;78;21009;-77
2021/08/13 06:19:55;;;;;;;15.13;9.70;;;;;;;18.97;62.28;100779.13;2231413;78;21063;-76
2021/08/13 06:22:56;;;;;;;13.98;10.65;;;;;;;18.97;62.89;100785.02;2227853;78;21006;-75
2021/08/13 06:25:58;;;;;;;12.33;9.20;;;;;;;19.23;63.31;100778.32;2228229;78;21042;-75
2021/08/13 06:28:59;;;;;;;15.30;9.50;;;;;;;19.53;62.69;100777.04;2231044;78;21328;-76
2021/08/13 06:32:02;;;;;;;12.65;8.98;;;;;;;19.91;62.74;100772.63;2230845;78;21073;-77
2021/08/13 06:35:05;;;;;;;14.05;9.18;;;;;;;20.55;61.74;100778.16;2229936;78;20983;-78
2021/08/13 06:38:09;;;;;;;13.68;9.00;;;;;;;21.00;61.23;100772.67;2228911;78;21013;-74
2021/08/13 06:41:11;;;;;;;11.28;9.00;;;;;;;21.41;58.88;100778.07;2199040;78;21080;-75
2021/08/13 06:44:15;;;;;;;17.73;8.60;;;;;;;21.62;59.06;100779.52;2228894;78;21136;-75
2021/08/13 06:47:16;;;;;;;13.30;8.30;;;;;;;21.77;58.40;100781.34;2230071;78;21057;-75
2021/08/13 06:50:18;;;;;;;12.88;8.90;;;;;;;22.06;57.44;100776.23;2229287;78;21031;-78
2021/08/13 06:53:21;;;;;;;12.40;8.03;;;;;;;22.35;56.39;100770.04;2226934;78;21049;-75
2021/08/13 06:56:23;;;;;;;12.13;7.45;;;;;;;22.57;55.61;100773.06;2220192;79;21549;-75
2021/08/13 06:59:24;;;;;;;15.75;8.45;;;;;;;22.73;56.81;100768.89;2216195;78;21026;-77
2021/08/13 07:02:25;;;;;;;12.65;7.37;;;;;;;23.25;55.56;100769.64;2223200;78;21602;-75
2021/08/13 07:05:27;;;;;;;11.93;7.45;;;;;;;23.60;55.85;100768.29;2219258;78;20985;-75
2021/08/13 07:08:28;;;;;;;11.97;7.20;;;;;;;23.93;53.85;100765.48;2221472;78;21026;-75
2021/08/13 07:11:34;;;;;;;12.50;7.20;;;;;;;23.93;51.94;100766.33;2219455;78;21072;-75
2021/08/13 07:14:35;;;;;;;11.35;6.70;;;;;;;23.86;52.97;100765.63;2219188;78;21504;-74
2021/08/13 07:17:37;;;;;;;7.62;6.08;;;;;;;24.03;52.55;100768.95;2221152;78;21052;-75
2021/08/13 07:20:39;;;;;;;11.08;6.40;;;;;;;24.43;53.38;100768.94;2219285;78;21030;-75
2021/08/13 07:23:42;;;;;;;8.63;6.28;;;;;;;24.89;52.09;100767.05;2219711;79;21086;-75
2021/08/13 07:26:45;;;;;;;9.53;5.97;;;;;;;25.25;52.90;100764.38;2217065;78;21045;-76
2021/08/13 07:29:46;;;;;;;8.00;6.17;;;;;;;25.88;52.45;100760.95;2214344;78;21065;-75
2021/08/13 07:32:48;;;;;;;8.80;5.78;;;;;;;26.44;50.74;100759.41;2216873;78;21005;-75
2021/08/13 07:35:50;;;;;;;8.85;5.95;;;;;;;26.80;50.68;100767.38;2212567;78;21060;-75
2021/08/13 07:38:52;;;;;;;13.80;6.33;;;;;;;27.24;50.24;100763.13;2219399;78;21017;-75
2021/08/13 07:41:54;;;;;;;9.18;5.70;;;;;;;27.68;48.91;100756.59;2212887;78;21726;-75
2021/08/13 07:44:56;;;;;;;8.95;5.50;;;;;;;27.83;49.21;100765.40;2219105;78;21043;-75
2021/08/13 07:47:58;;;;;;;7.17;5.42;;;;;;;28.10;48.82;100764.70;2214792;78;21052;-75
2021/08/13 07:50:59;;;;;;;7.97;5.47;;;;;;;28.42;48.07;100760.98;2186909;78;21062;-75
2021/08/13 07:54:00;;;;;;;9.03;6.12;;;;;;;28.63;46.61;100759.63;2214264;78;21105;-74
2021/08/13 07:57:03;;;;;;;8.53;5.65;;;;;;;28.75;46.41;100761.02;2210203;78;21090;-74
2021/08/13 08:00:06;;;;;;;6.80;5.40;;;;;;;28.83;45.54;100763.73;2212389;78;21029;-80
2021/08/13 08:03:09;;;;;;;7.90;6.00;;;;;;;28.94;45.85;100757.17;2213437;78;22220;-81
2021/08/13 08:06:10;;;;;;;8.58;5.75;;;;;;;29.39;46.08;100750.59;2219206;78;20999;-81
2021/08/13 08:09:12;;;;;;;7.60;5.58;;;;;;;29.49;45.12;100751.39;2214306;78;21084;-82
2021/08/13 08:12:13;;;;;;;9.23;5.37;;;;;;;29.73;44.78;100749.42;2215906;78;20981;-81
2021/08/13 08:15:15;;;;;;;11.75;6.17;;;;;;;29.99;44.21;100747.94;2215459;78;21108;-81
2021/08/13 08:18:19;;;;;;;12.05;5.45;;;;;;;30.19;44.03;100746.48;2213093;78;21020;-80
2021/08/13 08:21:21;;;;;;;9.50;5.20;;;;;;;30.30;43.54;100743.98;2212494;78;21005;-81
2021/08/13 08:24:22;;;;;;;9.53;6.17;;;;;;;30.53;42.50;100747.12;2217579;78;21055;-81
2021/08/13 08:27:24;;;;;;;7.53;5.37;;;;;;;30.31;41.78;100747.53;2215106;78;21647;-80
2021/08/13 08:30:25;;;;;;;7.47;5.70;;;;;;;30.27;42.59;100742.34;2213305;78;20923;-80
2021/08/13 08:33:26;;;;;;;8.18;5.65;;;;;;;30.57;41.88;100742.69;2214938;78;21100;-80
2021/08/13 08:36:28;;;;;;;6.12;5.17;;;;;;;30.69;41.58;100739.06;2210606;78;20981;-80
2021/08/13 08:39:28;;;;;;;10.58;5.80;;;;;;;30.86;41.59;100735.09;2217238;78;21041;-81
2021/08/13 08:42:30;;;;;;;8.03;5.00;;;;;;;30.87;41.22;100738.11;2215996;78;21179;-81
2021/08/13 08:45:35;;;;;;;8.25;5.03;;;;;;;30.70;40.91;100732.46;2213124;78;21140;-80
2021/08/13 08:48:38;;;;;;;7.85;5.40;;;;;;;30.70;40.91;100732.46;2219150;78;20978;-80
2021/08/13 08:51:40;;;;;;;6.33;5.58;;;;;;;31.00;40.88;100738.80;2214465;78;21548;-80
2021/08/13 08:54:43;;;;;;;8.55;4.85;;;;;;;31.10;40.13;100737.89;2223247;78;21096;-80
2021/08/13 08:57:46;;;;;;;9.88;5.22;;;;;;;31.21;40.45;100739.42;2231512;78;21747;-82
2021/08/13 09:00:48;;;;;;;9.20;5.20;;;;;;;31.52;40.00;100745.42;2231409;78;21002;-81
2021/08/13 09:03:49;;;;;;;8.98;4.92;;;;;;;31.86;39.72;100742.53;2230515;78;20974;-80
2021/08/13 09:06:50;;;;;;;10.43;4.60;;;;;;;32.02;39.70;100740.44;2234132;78;21033;-81
2021/08/13 09:09:51;;;;;;;5.85;4.35;;;;;;;32.06;39.40;100735.98;2230195;78;21066;-81
2021/08/13 09:12:53;;;;;;;7.15;4.50;;;;;;;32.19;39.65;100737.75;2230579;78;21046;-81
2021/08/13 09:15:55;;;;;;;6.22;4.55;;;;;;;32.21;38.28;100739.62;2228109;78;21001;-82
2021/08/13 09:19:02;;;;;;;6.30;4.53;;;;;;;32.21;38.03;100732.75;2228093;78;21017;-81
2021/08/13 09:22:18;;;;;;;7.45;4.08;;;;;;;32.18;37.98;100734.72;2228840;78;21074;-82
2021/08/13 09:25:25;;;;;;;8.45;4.80;;;;;;;32.21;38.19;100723.14;2223243;78;21067;-79
2021/08/13 09:28:49;;;;;;;6.97;3.95;;;;;;;32.37;38.06;100728.11;2228336;78;21062;-79
2021/08/13 09:31:53;;;;;;;5.10;4.50;;;;;;;32.72;37.81;100723.73;2229594;78;21041;-80
2021/08/13 09:34:56;;;;;;;7.50;4.58;;;;;;;32.72;36.77;100720.99;2232484;78;21093;-81
2021/08/13 09:37:57;;;;;;;6.97;4.50;;;;;;;32.73;34.70;100724.02;2230590;78;21013;-80
2021/08/13 09:41:18;;;;;;;8.73;4.05;;;;;;;32.48;36.45;100726.05;2228288;78;21013;-79
2021/08/13 09:44:31;;;;;;;5.75;4.00;;;;;;;32.48;36.28;100730.73;2228999;78;21606;-80
2021/08/13 09:47:46;;;;;;;8.58;3.85;;;;;;;32.76;36.15;100722.84;2229177;78;21024;-80
2021/08/13 09:50:47;;;;;;;6.22;3.87;;;;;;;32.90;36.30;100727.01;2229250;78;21512;-80
2021/08/13 09:54:04;;;;;;;5.58;3.90;;;;;;;33.09;35.77;100726.17;2225583;78;20990;-79
2021/08/13 09:57:11;;;;;;;4.05;3.55;;;;;;;33.09;35.97;100725.61;2226844;78;21479;-80
2021/08/13 10:00:16;;;;;;;9.05;4.05;;;;;;;33.12;35.26;100726.38;2226932;78;21524;-80
2021/08/13 10:03:18;;;;;;;4.67;4.28;;;;;;;33.07;35.46;100728.41;2228761;78;21001;-80
2021/08/13 10:06:24;;;;;;;7.25;4.72;;;;;;;33.10;34.96;100727.80;2229137;78;21024;-79
2021/08/13 10:09:29;;;;;;;5.85;4.50;;;;;;;33.19;33.99;100722.65;2226166;78;21037;-78
2021/08/13 10:12:36;;;;;;;4.30;3.87;;;;;;;33.12;34.21;100716.75;2228632;78;21390;-78
2021/08/13 10:15:43;;;;;;;10.55;4.00;;;;;;;33.26;34.02;100709.89;2227936;78;21623;-79
2021/08/13 10:18:59;;;;;;;5.47;3.98;;;;;;;33.46;34.52;100712.80;2225248;78;21029;-78
2021/08/13 10:22:03;;;;;;;7.30;4.58;;;;;;;33.54;34.19;100701.67;2223382;78;21056;-84
2021/08/13 10:25:06;;;;;;;7.75;4.30;;;;;;;33.52;33.82;100708.01;2239708;78;21634;-78
2021/08/13 10:28:07;;;;;;;7.08;4.22;;;;;;;33.38;33.49;100708.01;2249105;77;20976;-81
2021/08/13 10:31:12;;;;;;;7.30;4.62;;;;;;;33.17;33.46;100711.16;2224482;78;21619;-77
2021/08/13 10:34:15;;;;;;;7.45;4.25;;;;;;;33.20;34.17;100706.42;2225909;78;21056;-80
2021/08/13 10:37:17;;;;;;;4.87;4.37;;;;;;;33.38;33.92;100701.94;2226659;78;20985;-77
2021/08/13 10:40:21;;;;;;;7.10;4.17;;;;;;;33.51;33.11;100698.95;2226625;78;21050;-78
2021/08/13 10:43:34;;;;;;;6.62;4.15;;;;;;;33.56;33.19;100696.66;2228240;78;21096;-77
2021/08/13 10:46:38;;;;;;;9.63;4.50;;;;;;;33.63;33.24;100697.08;2228177;78;21045;-77
2021/08/13 10:49:45;;;;;;;7.15;4.20;;;;;;;33.48;33.44;100692.69;2226332;78;21440;-79
2021/08/13 10:52:47;;;;;;;8.65;4.70;;;;;;;33.57;33.23;100690.86;2223154;78;21056;-78
2021/08/13 10:55:53;;;;;;;7.83;4.15;;;;;;;33.49;33.30;100683.30;2225522;78;21096;-77
2021/08/13 10:58:57;;;;;;;6.35;4.12;;;;;;;33.51;33.21;100680.23;2224634;78;21064;-77
2021/08/13 11:02:16;;;;;;;6.10;3.75;;;;;;;33.51;33.55;100682.98;2222789;78;21049;-81
2021/08/13 11:05:58;;;;;;;7.37;3.83;;;;;;;33.61;33.13;100675.92;2219732;78;20997;-79
2021/08/13 11:09:01;;;;;;;6.00;4.03;;;;;;;33.47;33.13;100667.66;2224329;78;21080;-80
2021/08/13 11:12:15;;;;;;;3.77;3.42;;;;;;;33.48;33.27;100668.73;2228563;78;21024;-80
2021/08/13 11:15:34;;;;;;;4.28;3.87;;;;;;;33.55;32.84;100671.09;2224659;78;21019;-80
2021/08/13 11:18:38;;;;;;;7.12;4.20;;;;;;;33.58;32.73;100661.41;2217431;78;21518;-80
2021/08/13 11:21:50;;;;;;;6.08;4.12;;;;;;;33.08;33.10;100666.80;2226562;78;21066;-80
2021/08/13 11:24:53;;;;;;;5.70;4.12;;;;;;;32.62;32.68;100662.12;2200571;79;21055;-79
2021/08/13 11:28:24;;;;;;;5.50;4.47;;;;;;;32.72;34.05;100662.77;2226948;79;21025;-81
2021/08/13 11:31:50;;;;;;;4.58;3.80;;;;;;;32.90;33.22;100665.17;2222356;78;20997;-79
2021/08/13 11:35:10;;;;;;;5.08;4.58;;;;;;;32.81;33.15;100662.31;2224018;78;21051;-81
2021/08/13 11:38:13;;;;;;;8.95;4.90;;;;;;;32.97;33.38;100664.23;2226400;78;21046;-81
2021/08/13 11:41:24;;;;;;;8.90;4.10;;;;;;;33.23;33.21;100656.89;2226520;78;21032;-80
2021/08/13 11:44:31;;;;;;;5.47;4.30;;;;;;;33.10;32.82;100650.26;2221387;78;20989;-79
2021/08/13 11:47:33;;;;;;;10.30;4.58;;;;;;;33.09;32.56;100645.89;2226732;79;21057;-80
2021/08/13 11:50:36;;;;;;;4.28;3.83;;;;;;;33.00;32.85;100651.28;2202000;79;21105;-83
2021/08/13 11:53:40;;;;;;;4.78;4.20;;;;;;;33.04;32.47;100648.17;2228218;78;21013;-82
2021/08/13 11:56:42;;;;;;;4.83;4.10;;;;;;;32.88;32.94;100656.41;2217678;78;21074;-80
2021/08/13 11:59:46;;;;;;;4.30;3.90;;;;;;;32.92;32.85;100646.46;2216019;78;22062;-80
2021/08/13 12:02:48;;;;;;;5.60;3.87;;;;;;;33.01;32.59;100647.41;2216446;78;21542;-80
2021/08/13 12:05:49;;;;;;;5.30;3.75;;;;;;;33.04;32.65;100648.17;2220640;78;20993;-79
2021/08/13 12:08:50;;;;;;;6.47;4.42;;;;;;;32.92;32.39;100639.59;2194187;78;20989;-80
2021/08/13 12:11:52;;;;;;;6.62;4.58;;;;;;;33.03;32.52;100637.50;2222954;78;21088;-80
2021/08/13 12:14:57;;;;;;;6.22;4.17;;;;;;;33.06;32.75;100638.80;2217441;78;21084;-76
2021/08/13 12:17:57;;;;;;;7.80;4.40;;;;;;;32.91;32.65;100639.88;2212049;78;21036;-78
2021/08/13 12:21:05;;;;;;;5.33;4.05;;;;;;;32.73;32.44;100647.09;2212816;78;21050;-79
2021/08/13 12:24:07;;;;;;;5.28;4.22;;;;;;;32.58;32.59;100639.95;2198408;78;21040;-78
2021/08/13 12:27:11;;;;;;;6.50;4.30;;;;;;;32.55;32.85;100634.50;2214929;78;21103;-80
2021/08/13 12:30:22;;;;;;;6.72;4.40;;;;;;;32.56;32.70;100636.12;2195287;78;20988;-81
2021/08/13 12:33:25;;;;;;;5.97;4.35;;;;;;;32.56;33.11;100631.19;2208224;78;21131;-80
2021/08/13 12:36:27;;;;;;;9.55;4.67;;;;;;;32.54;33.20;100634.22;2214190;78;21515;-80
2021/08/13 12:39:30;;;;;;;10.60;4.72;;;;;;;32.52;33.18;100626.02;2216657;78;21036;-79
2021/08/13 12:42:33;;;;;;;7.15;4.50;;;;;;;32.66;33.07;100628.23;2209345;78;21021;-80
2021/08/13 12:45:35;;;;;;;6.92;4.50;;;;;;;32.60;32.94;100626.70;2215756;78;21422;-79
2021/08/13 12:48:36;;;;;;;6.05;4.30;;;;;;;32.46;33.00;100629.41;2212037;78;21653;-80
2021/08/13 12:51:38;;;;;;;7.55;4.40;;;;;;;32.40;33.50;100630.59;2214824;78;21039;-79
2021/08/13 12:54:44;;;;;;;6.10;4.83;;;;;;;32.35;33.04;100627.39;2220230;78;21029;-79
2021/08/13 12:57:48;;;;;;;7.20;4.47;;;;;;;32.30;33.68;100626.10;2214901;78;21009;-80
2021/08/13 13:00:49;;;;;;;12.63;4.67;;;;;;;32.28;33.38;100620.66;2221089;78;21524;-77
2021/08/13 13:04:14;;;;;;;6.28;4.62;;;;;;;32.28;33.03;100617.91;2212446;78;20997;-80
2021/08/13 13:07:35;;;;;;;7.33;5.05;;;;;;;32.23;33.12;100614.67;2217925;78;21038;-80
2021/08/13 13:10:38;;;;;;;8.05;4.55;;;;;;;32.21;32.86;100611.97;2216889;78;21095;-81
2021/08/13 13:13:49;;;;;;;5.62;5.03;;;;;;;32.21;32.87;100608.66;2220912;78;20973;-81
2021/08/13 13:17:09;;;;;;;8.30;5.30;;;;;;;32.31;32.97;100599.45;2221671;78;21014;-80
2021/08/13 13:20:19;;;;;;;5.85;4.75;;;;;;;32.28;33.14;100596.75;2217838;78;21037;-79
2021/08/13 13:23:28;;;;;;;7.72;5.40;;;;;;;32.31;32.87;100603.58;2216763;78;21122;-82
2021/08/13 13:26:36;;;;;;;9.85;5.42;;;;;;;32.15;32.74;100606.56;2217429;78;21091;-82
2021/08/13 13:29:44;;;;;;;8.50;5.28;;;;;;;32.08;32.60;100610.27;2214815;78;21039;-80
2021/08/13 13:33:22;;;;;;;12.07;4.60;;;;;;;32.06;33.09;100605.62;2218360;78;21528;-80
2021/08/13 13:36:26;;;;;;;6.12;5.00;;;;;;;32.02;32.91;100601.86;2204614;78;21106;-78
2021/08/13 13:39:29;;;;;;;9.75;5.40;;;;;;;32.03;33.32;100602.67;2220019;78;21148;-75
2021/08/13 13:42:31;;;;;;;7.72;5.12;;;;;;;31.98;33.09;100595.31;2222756;78;20956;-79
2021/08/13 13:45:36;;;;;;;6.97;4.85;;;;;;;31.94;33.42;100605.27;2220274;78;21592;-78
2021/08/13 13:48:40;;;;;;;5.92;4.12;;;;;;;31.90;33.67;100607.77;2220106;78;20990;-77
2021/08/13 13:51:40;;;;;;;7.70;5.37;;;;;;;31.84;33.46;100601.27;2220085;78;21016;-79
2021/08/13 13:54:42;;;;;;;32.13;6.22;;;;;;;31.82;33.29;100595.26;2215586;78;21065;-78
2021/08/13 13:57:45;;;;;;;10.65;4.80;;;;;;;31.75;33.55;100593.46;2227231;78;21142;-76
2021/08/13 14:00:47;;;;;;;9.58;5.08;;;;;;;31.66;34.21;100581.78;2227638;78;21033;-77
2021/08/13 14:03:48;;;;;;;5.58;5.00;;;;;;;31.59;34.14;100579.95;2225738;78;20987;-78
2021/08/13 14:06:50;;;;;;;9.48;4.58;;;;;;;31.61;34.04;100575.56;2229923;78;21019;-78
2021/08/13 14:09:51;;;;;;;8.08;5.10;;;;;;;31.52;33.65;100569.92;2200865;78;20974;-76
2021/08/13 14:12:59;;;;;;;8.40;4.87;;;;;;;31.56;34.17;100570.95;2227024;78;21021;-76
2021/08/13 14:16:00;;;;;;;7.05;4.78;;;;;;;31.53;34.12;100573.48;2224195;78;21017;-80